createdAt,value
2018-01-29T00:01:03.536Z,100857.56
2018-01-29T00:03:30.526Z,100852.33
2018-01-29T00:05:57.042Z,100855.04
2018-01-29T00:08:23.357Z,100844.03
2018-01-29T00:10:50.353Z,100849.66
2018-01-29T00:13:16.621Z,100837.95
2018-01-29T00:15:42.853Z,100870.49
2018-01-29T00:18:09.177Z,100815.88
2018-01-29T00:20:35.415Z,100853.02
2018-01-29T00:23:02.423Z,100846.81
2018-01-29T00:25:28.669Z,100848.94
2018-01-29T00:27:54.913Z,100838.45
2018-01-29T00:30:21.155Z,100858.87
2018-01-29T00:32:48.158Z,100868.07
2018-01-29T00:35:15.151Z,100854.28
2018-01-29T00:37:42.178Z,100852.55
2018-01-29T00:40:08.423Z,100867.91
2018-01-29T00:42:35.428Z,100864.06
2018-01-29T00:45:01.692Z,100844.50
2018-01-29T00:47:28.702Z,100854.59
2018-01-29T00:49:54.950Z,100852.78
2018-01-29T00:52:21.176Z,100871.61
2018-01-29T00:54:47.528Z,100857.86
2018-01-29T00:57:14.542Z,100851.59
2018-01-29T00:59:40.787Z,100866.49
2018-01-29T01:02:07.089Z,100863.91
2018-01-29T01:04:33.359Z,100869.96
2018-01-29T01:07:00.421Z,100795.82
2018-01-29T01:09:26.740Z,100853.31
2018-01-29T01:11:53.735Z,100863.64
2018-01-29T01:14:19.975Z,100825.44
2018-01-29T01:16:46.263Z,100867.48
2018-01-29T01:19:13.246Z,100846.31
2018-01-29T01:21:39.503Z,100866.05
2018-01-29T01:24:05.767Z,100857.59
2018-01-29T01:26:32.108Z,100863.55
2018-01-29T01:28:59.114Z,100871.75
2018-01-29T01:31:25.350Z,100865.59
2018-01-29T01:33:51.614Z,100849.08
2018-01-29T01:36:18.643Z,100857.86
2018-01-29T01:38:44.896Z,100853.55
2018-01-29T01:41:11.234Z,100854.62
2018-01-29T01:43:37.504Z,100834.78
2018-01-29T01:46:03.822Z,100832.14
2018-01-29T01:48:30.092Z,100834.31
2018-01-29T01:50:56.429Z,100832.61
2018-01-29T01:53:23.452Z,100813.13
2018-01-29T01:55:49.704Z,100833.80
2018-01-29T01:58:16.903Z,100838.26
2018-01-29T02:00:43.197Z,100821.30
2018-01-29T02:03:10.201Z,100850.37
2018-01-29T02:05:36.477Z,100834.73
2018-01-29T02:08:03.476Z,100815.81
2018-01-29T02:10:30.473Z,100836.03
2018-01-29T02:12:56.739Z,100833.33
2018-01-29T02:15:23.181Z,100838.67
2018-01-29T02:17:49.433Z,100834.45
2018-01-29T02:20:15.769Z,100817.05
2018-01-29T02:22:42.065Z,100843.01
2018-01-29T02:25:08.320Z,100810.99
2018-01-29T02:27:34.652Z,100832.47
2018-01-29T02:30:00.915Z,100822.61
2018-01-29T02:32:27.922Z,100811.27
2018-01-29T02:34:54.174Z,100822.48
2018-01-29T02:37:20.425Z,100823.42
2018-01-29T02:39:46.697Z,100817.16
2018-01-29T02:42:12.981Z,100801.22
2018-01-29T02:44:39.986Z,100822.25
2018-01-29T02:47:06.323Z,100809.55
2018-01-29T02:49:32.568Z,100810.37
2018-01-29T02:51:58.841Z,100805.70
2018-01-29T02:54:25.155Z,100803.70
2018-01-29T02:56:52.157Z,100815.38
2018-01-29T02:59:18.412Z,100810.61
2018-01-29T03:01:44.737Z,100814.53
2018-01-29T03:04:11.014Z,100783.61
2018-01-29T03:06:37.315Z,100806.73
2018-01-29T03:09:03.614Z,100789.73
2018-01-29T03:11:29.841Z,100795.33
2018-01-29T03:13:56.175Z,100786.47
2018-01-29T03:16:22.413Z,100781.81
2018-01-29T03:18:48.671Z,100785.73
2018-01-29T03:21:14.961Z,100781.76
2018-01-29T03:23:41.252Z,100766.91
2018-01-29T03:26:07.493Z,100759.47
2018-01-29T03:28:33.796Z,100753.39
2018-01-29T03:31:00.049Z,100750.66
2018-01-29T03:33:26.309Z,100751.08
2018-01-29T03:35:52.704Z,100769.80
2018-01-29T03:38:18.981Z,100760.21
2018-01-29T03:40:45.312Z,100773.69
2018-01-29T03:43:11.623Z,100773.30
2018-01-29T03:45:37.882Z,100742.92
2018-01-29T03:48:04.900Z,100766.40
2018-01-29T03:50:31.146Z,100754.83
2018-01-29T03:52:57.398Z,100759.27
2018-01-29T03:55:24.426Z,100775.42
2018-01-29T03:57:50.713Z,100814.08
2018-01-29T04:00:16.993Z,100790.41
2018-01-29T04:02:43.290Z,100778.27
2018-01-29T04:05:09.603Z,100778.19
2018-01-29T04:07:35.854Z,100781.64
2018-01-29T04:10:02.157Z,100776.11
2018-01-29T04:12:28.435Z,100797.02
2018-01-29T04:14:54.685Z,100772.48
2018-01-29T04:17:21.701Z,100761.09
2018-01-29T04:19:47.951Z,100770.24
2018-01-29T04:22:14.211Z,100744.89
2018-01-29T04:24:40.495Z,100757.45
2018-01-29T04:27:06.740Z,100758.08
2018-01-29T04:29:32.970Z,100751.34
2018-01-29T04:31:59.191Z,100747.59
2018-01-29T04:34:25.428Z,100755.19
2018-01-29T04:36:51.681Z,100747.20
2018-01-29T04:39:17.948Z,100743.92
2018-01-29T04:41:44.199Z,100732.86
2018-01-29T04:44:12.280Z,100732.50
2018-01-29T04:46:38.609Z,100733.81
2018-01-29T04:49:04.909Z,100735.16
2018-01-29T04:51:31.172Z,100725.69
2018-01-29T04:53:57.503Z,100704.52
2018-01-29T04:56:23.904Z,100702.22
2018-01-29T04:58:50.208Z,100713.24
2018-01-29T05:01:16.496Z,100729.42
2018-01-29T05:03:42.752Z,100718.25
2018-01-29T05:06:09.064Z,100705.09
2018-01-29T05:08:35.355Z,100733.81
2018-01-29T05:11:01.619Z,100712.09
2018-01-29T05:13:27.947Z,100684.63
2018-01-29T05:15:54.186Z,100706.86
2018-01-29T05:18:20.436Z,100694.25
2018-01-29T05:20:46.821Z,100690.86
2018-01-29T05:23:13.057Z,100714.25
2018-01-29T05:25:39.335Z,100691.91
2018-01-29T05:28:05.593Z,100704.16
2018-01-29T05:30:31.837Z,100703.62
2018-01-29T05:33:04.920Z,100712.23
2018-01-29T05:35:32.072Z,100706.45
2018-01-29T05:37:58.390Z,100701.70
2018-01-29T05:40:24.682Z,100698.40
2018-01-29T05:42:51.004Z,100689.35
2018-01-29T05:45:18.095Z,100706.90
2018-01-29T05:47:44.453Z,100690.63
2018-01-29T05:50:10.743Z,100686.80
2018-01-29T05:52:37.031Z,100689.56
2018-01-29T05:55:03.346Z,100690.27
2018-01-29T05:57:29.659Z,100689.76
2018-01-29T05:59:56.008Z,100686.50
2018-01-29T06:02:22.355Z,100678.78
2018-01-29T06:04:48.700Z,100706.70
2018-01-29T06:07:15.807Z,100693.00
2018-01-29T06:09:42.852Z,100683.57
2018-01-29T06:12:09.101Z,100671.02
2018-01-29T06:14:35.368Z,100673.19
2018-01-29T06:17:01.722Z,100679.29
2018-01-29T06:19:28.004Z,100673.69
2018-01-29T06:21:54.312Z,100683.59
2018-01-29T06:24:20.540Z,100692.81
2018-01-29T06:26:46.874Z,100700.36
2018-01-29T06:29:13.128Z,100694.23
2018-01-29T06:31:39.476Z,100692.44
2018-01-29T06:34:05.754Z,100694.48
2018-01-29T06:36:31.996Z,100695.89
2018-01-29T06:38:58.228Z,100700.05
2018-01-29T06:41:24.548Z,100705.47
2018-01-29T06:43:50.808Z,100700.91
2018-01-29T06:46:17.084Z,100706.70
2018-01-29T06:48:43.334Z,100702.35
2018-01-29T06:51:09.602Z,100684.91
2018-01-29T06:53:36.633Z,100689.90
2018-01-29T06:56:02.903Z,100682.36
2018-01-29T06:58:29.197Z,100681.03
2018-01-29T07:00:55.432Z,100681.92
2018-01-29T07:03:21.683Z,100672.36
2018-01-29T07:05:47.941Z,100670.73
2018-01-29T07:08:14.225Z,100671.54
2018-01-29T07:10:42.291Z,100660.39
2018-01-29T07:13:09.311Z,100666.06
2018-01-29T07:15:35.568Z,100668.81
2018-01-29T07:18:01.874Z,100664.20
2018-01-29T07:20:28.140Z,100664.41
2018-01-29T07:22:55.125Z,100662.47
2018-01-29T07:25:21.418Z,100665.80
2018-01-29T07:27:48.918Z,100665.25
2018-01-29T07:30:15.948Z,100677.81
2018-01-29T07:32:42.215Z,100670.03
2018-01-29T07:35:08.513Z,100668.53
2018-01-29T07:37:34.788Z,100667.42
2018-01-29T07:40:01.075Z,100659.51
2018-01-29T07:42:27.343Z,100663.78
2018-01-29T07:44:53.694Z,100651.48
2018-01-29T07:47:19.955Z,100656.07
2018-01-29T07:49:46.227Z,100647.66
2018-01-29T07:52:12.546Z,100648.77
2018-01-29T07:54:38.879Z,100645.06
2018-01-29T07:57:05.151Z,100640.91
2018-01-29T07:59:31.431Z,100634.80
2018-01-29T08:01:57.741Z,100636.35
2018-01-29T08:04:24.069Z,100630.59
2018-01-29T08:06:50.335Z,100622.75
2018-01-29T08:09:16.638Z,100633.00
2018-01-29T08:11:42.891Z,100630.94
2018-01-29T08:14:09.131Z,100632.84
2018-01-29T08:16:35.419Z,100634.67
2018-01-29T08:19:01.689Z,100638.09
2018-01-29T08:21:27.993Z,100633.06
2018-01-29T08:23:54.312Z,100630.77
2018-01-29T08:26:20.591Z,100627.81
2018-01-29T08:28:46.947Z,100620.77
2018-01-29T08:31:13.986Z,100628.81
2018-01-29T08:33:40.268Z,100627.48
2018-01-29T08:36:06.538Z,100638.32
2018-01-29T08:38:32.800Z,100640.10
2018-01-29T08:40:59.098Z,100636.45
2018-01-29T08:43:25.384Z,100633.95
2018-01-29T08:45:51.664Z,100636.41
2018-01-29T08:48:17.891Z,100642.45
2018-01-29T08:50:44.148Z,100643.63
2018-01-29T08:53:11.273Z,100628.38
2018-01-29T08:55:37.672Z,100643.10
2018-01-29T08:58:04.843Z,100635.27
2018-01-29T09:00:31.107Z,100638.80
2018-01-29T09:02:58.063Z,100633.19
2018-01-29T09:05:24.357Z,100640.31
2018-01-29T09:07:50.667Z,100637.90
2018-01-29T09:10:17.726Z,100650.00
2018-01-29T09:12:43.967Z,100638.67
2018-01-29T09:15:10.278Z,100629.91
2018-01-29T09:17:36.553Z,100620.55
2018-01-29T09:20:02.888Z,100624.72
2018-01-29T09:22:29.173Z,100621.70
2018-01-29T09:24:55.455Z,100617.16
2018-01-29T09:27:21.760Z,100621.12
2018-01-29T09:29:48.028Z,100624.13
2018-01-29T09:32:14.298Z,100620.36
2018-01-29T09:34:40.562Z,100621.75
2018-01-29T09:37:07.574Z,100636.27
2018-01-29T09:39:33.846Z,100624.09
2018-01-29T09:42:00.134Z,100634.63
2018-01-29T09:44:26.385Z,100647.36
2018-01-29T09:46:53.427Z,100626.31
2018-01-29T09:49:19.721Z,100642.36
2018-01-29T09:51:46.752Z,100622.52
2018-01-29T09:54:13.055Z,100628.86
2018-01-29T09:56:40.073Z,100628.98
2018-01-29T09:59:06.335Z,100634.94
2018-01-29T10:01:33.323Z,100623.44
2018-01-29T10:03:59.600Z,100623.47
2018-01-29T10:06:26.588Z,100632.22
2018-01-29T10:08:52.827Z,100619.70
2018-01-29T10:11:19.168Z,100645.78
2018-01-29T10:13:45.415Z,100624.92
2018-01-29T10:16:11.658Z,100634.55
2018-01-29T10:18:37.908Z,100620.59
2018-01-29T10:21:04.920Z,100613.13
2018-01-29T10:23:31.272Z,100621.53
2018-01-29T10:25:58.253Z,100607.22
2018-01-29T10:28:24.512Z,100611.66
2018-01-29T10:30:50.752Z,100599.95
2018-01-29T10:33:17.785Z,100619.22
2018-01-29T10:35:44.052Z,100612.38
2018-01-29T10:38:10.351Z,100602.06
2018-01-29T10:40:36.701Z,100584.77
2018-01-29T10:43:03.011Z,100587.70
2018-01-29T10:45:29.313Z,100586.22
2018-01-29T10:47:55.698Z,100604.40
2018-01-29T10:50:21.937Z,100603.03
2018-01-29T10:52:48.185Z,100589.02
2018-01-29T10:55:14.445Z,100574.75
2018-01-29T10:57:40.699Z,100579.18
2018-01-29T11:00:07.041Z,100593.79
2018-01-29T11:02:33.283Z,100571.52
2018-01-29T11:04:59.512Z,100572.76
2018-01-29T11:07:25.785Z,100575.44
2018-01-29T11:09:52.035Z,100559.08
2018-01-29T11:12:18.286Z,100573.93
2018-01-29T11:14:44.585Z,100570.33
2018-01-29T11:17:10.830Z,100552.63
2018-01-29T11:19:37.106Z,100553.54
2018-01-29T11:22:04.102Z,100545.42
2018-01-29T11:24:30.405Z,100533.39
2018-01-29T11:26:56.698Z,100537.12
2018-01-29T11:29:22.996Z,100526.22
2018-01-29T11:31:49.280Z,100532.48
2018-01-29T11:34:15.586Z,100516.36
2018-01-29T11:36:41.864Z,100518.06
2018-01-29T11:39:08.156Z,100507.72
2018-01-29T11:41:35.147Z,100510.36
2018-01-29T11:44:01.529Z,100495.16
2018-01-29T11:46:27.845Z,100490.35
2018-01-29T11:48:55.661Z,100499.27
2018-01-29T11:51:21.980Z,100491.82
2018-01-29T11:53:48.265Z,100481.69
2018-01-29T11:56:14.542Z,100477.13
2018-01-29T11:58:40.835Z,100479.78
2018-01-29T12:01:07.087Z,100483.22
2018-01-29T12:03:33.375Z,100480.08
2018-01-29T12:05:59.699Z,100471.98
2018-01-29T12:08:25.997Z,100467.02
2018-01-29T12:10:52.256Z,100469.95
2018-01-29T12:13:18.519Z,100467.55
2018-01-29T12:15:46.246Z,100467.87
2018-01-29T12:18:13.626Z,100463.19
2018-01-29T12:20:39.901Z,100460.52
2018-01-29T12:23:06.168Z,100461.00
2018-01-29T12:25:32.413Z,100451.45
2018-01-29T12:27:58.704Z,100454.30
2018-01-29T12:30:24.988Z,100457.45
2018-01-29T12:32:51.376Z,100449.97
2018-01-29T12:35:17.684Z,100447.94
2018-01-29T12:37:43.960Z,100429.78
2018-01-29T12:40:10.243Z,100433.75
2018-01-29T12:42:36.510Z,100415.95
2018-01-29T12:45:02.929Z,100455.72
2018-01-29T12:47:29.215Z,100422.73
2018-01-29T12:49:56.223Z,100407.52
2018-01-29T12:52:22.503Z,100408.00
2018-01-29T12:54:49.499Z,100404.69
2018-01-29T12:57:15.776Z,100389.94
2018-01-29T12:59:42.805Z,100390.95
2018-01-29T13:02:09.147Z,100392.06
2018-01-29T13:04:35.461Z,100363.72
2018-01-29T13:07:01.737Z,100366.37
2018-01-29T13:09:28.048Z,100371.27
2018-01-29T13:11:55.038Z,100363.22
2018-01-29T13:14:21.290Z,100363.96
2018-01-29T13:16:47.603Z,100357.12
2018-01-29T13:19:13.851Z,100361.80
2018-01-29T13:21:40.116Z,100368.23
2018-01-29T13:24:07.112Z,100361.34
2018-01-29T13:26:33.388Z,100330.97
2018-01-29T13:29:00.430Z,100342.49
2018-01-29T13:31:26.724Z,100333.02
2018-01-29T13:33:52.993Z,100346.17
2018-01-29T13:36:19.986Z,100330.53
2018-01-29T13:38:46.330Z,100322.94
2018-01-29T13:41:12.654Z,100315.13
2018-01-29T13:43:38.941Z,100306.57
2018-01-29T13:46:05.951Z,100314.13
2018-01-29T13:48:32.233Z,100314.76
2018-01-29T13:50:58.567Z,100305.20
2018-01-29T13:53:24.947Z,100316.48
2018-01-29T13:55:52.197Z,100310.62
2018-01-29T13:58:18.630Z,100307.30
2018-01-29T14:00:44.947Z,100295.77
2018-01-29T14:03:11.244Z,100307.79
2018-01-29T14:05:37.503Z,100299.95
2018-01-29T14:08:03.787Z,100288.19
2018-01-29T14:10:30.848Z,100277.09
2018-01-29T14:12:57.148Z,100277.37
2018-01-29T14:15:23.502Z,100274.10
2018-01-29T14:17:50.524Z,100260.32
2018-01-29T14:20:16.779Z,100270.55
2018-01-29T14:22:43.852Z,100270.05
2018-01-29T14:25:10.435Z,100262.09
2018-01-29T14:27:36.857Z,100264.75
2018-01-29T14:30:03.202Z,100235.51
2018-01-29T14:32:29.755Z,100260.16
2018-01-29T14:34:56.121Z,100249.69
2018-01-29T14:37:22.417Z,100252.17
2018-01-29T14:39:49.535Z,100256.00
2018-01-29T14:42:15.975Z,100244.64
2018-01-29T14:44:42.288Z,100224.59
2018-01-29T14:47:08.729Z,100246.64
2018-01-29T14:49:34.996Z,100233.00
2018-01-29T14:52:02.192Z,100237.64
2018-01-29T14:54:28.431Z,100231.38
2018-01-29T14:56:54.748Z,100238.90
2018-01-29T14:59:21.025Z,100228.91
2018-01-29T15:01:48.042Z,100229.05
2018-01-29T15:04:14.340Z,100228.33
2018-01-29T15:06:40.670Z,100228.44
2018-01-29T15:09:07.030Z,100243.13
2018-01-29T15:11:33.294Z,100229.27
2018-01-29T15:13:59.576Z,100216.77
2018-01-29T15:16:25.860Z,100222.91
2018-01-29T15:18:52.218Z,100217.62
2018-01-29T15:21:19.228Z,100226.52
2018-01-29T15:23:45.540Z,100216.05
2018-01-29T15:26:11.875Z,100210.50
2018-01-29T15:28:38.246Z,100207.97
2018-01-29T15:31:05.474Z,100222.01
2018-01-29T15:33:31.891Z,100207.25
2018-01-29T15:35:58.179Z,100209.45
2018-01-29T15:38:24.551Z,100200.11
2018-01-29T15:40:50.892Z,100222.84
2018-01-29T15:43:17.231Z,100195.14
2018-01-29T15:45:43.503Z,100211.76
2018-01-29T15:48:09.831Z,100208.67
2018-01-29T15:50:37.269Z,100196.69
2018-01-29T15:53:04.280Z,100197.19
2018-01-29T15:55:30.548Z,100195.11
2018-01-29T15:57:57.564Z,100208.17
2018-01-29T16:00:23.878Z,100191.77
2018-01-29T16:02:50.191Z,100213.09
2018-01-29T16:05:16.548Z,100194.42
2018-01-29T16:07:42.836Z,100195.44
2018-01-29T16:10:09.204Z,100186.39
2018-01-29T16:12:35.478Z,100196.36
2018-01-29T16:15:02.524Z,100185.81
2018-01-29T16:17:29.572Z,100187.91
2018-01-29T16:19:56.579Z,100195.09
2018-01-29T16:22:22.865Z,100187.03
2018-01-29T16:24:49.211Z,100184.78
2018-01-29T16:27:15.535Z,100188.72
2018-01-29T16:29:41.911Z,100194.31
2018-01-29T16:32:08.239Z,100180.73
2018-01-29T16:34:34.557Z,100169.19
2018-01-29T16:37:00.907Z,100176.37
2018-01-29T16:39:27.213Z,100181.03
2018-01-29T16:41:53.491Z,100180.23
2018-01-29T16:44:19.793Z,100183.84
2018-01-29T16:46:46.116Z,100179.92
2018-01-29T16:49:12.406Z,100189.56
2018-01-29T16:51:38.732Z,100189.60
2018-01-29T16:54:05.741Z,100177.52
2018-01-29T16:56:32.130Z,100164.14
2018-01-29T16:58:58.536Z,100174.45
2018-01-29T17:01:24.829Z,100169.36
2018-01-29T17:03:51.916Z,100143.30
2018-01-29T17:06:18.948Z,100162.55
2018-01-29T17:08:45.196Z,100158.95
2018-01-29T17:11:11.478Z,100149.34
2018-01-29T17:13:37.788Z,100155.94
2018-01-29T17:16:04.224Z,100154.91
2018-01-29T17:18:30.493Z,100146.13
2018-01-29T17:20:57.820Z,100151.40
2018-01-29T17:23:24.922Z,100154.80
2018-01-29T17:25:51.267Z,100145.92
2018-01-29T17:28:17.639Z,100139.70
2018-01-29T17:30:44.053Z,100136.79
2018-01-29T17:33:10.307Z,100138.03
2018-01-29T17:35:37.403Z,100130.36
2018-01-29T17:38:04.570Z,100140.30
2018-01-29T17:40:30.920Z,100126.91
2018-01-29T17:42:57.179Z,100123.59
2018-01-29T17:45:23.422Z,100126.52
2018-01-29T17:47:49.696Z,100115.45
2018-01-29T17:50:16.012Z,100124.73
2018-01-29T17:52:43.022Z,100116.94
2018-01-29T17:55:09.324Z,100115.75
2018-01-29T17:57:35.636Z,100127.05
2018-01-29T18:00:01.967Z,100119.91
2018-01-29T18:02:28.254Z,100113.32
2018-01-29T18:04:54.496Z,100103.33
2018-01-29T18:07:21.499Z,100106.77
2018-01-29T18:09:47.799Z,100093.15
2018-01-29T18:12:14.493Z,100082.22
2018-01-29T18:14:40.837Z,100076.87
2018-01-29T18:17:07.117Z,100074.58
2018-01-29T18:19:33.375Z,100072.41
2018-01-29T18:21:59.816Z,100069.39
2018-01-29T18:24:26.105Z,100058.56
2018-01-29T18:26:52.689Z,100034.83
2018-01-29T18:29:19.027Z,100040.73
2018-01-29T18:31:45.333Z,100060.69
2018-01-29T18:34:11.672Z,100052.38
2018-01-29T18:36:38.002Z,100052.45
2018-01-29T18:39:04.302Z,100037.13
2018-01-29T18:41:30.588Z,100039.52
2018-01-29T18:43:56.928Z,100037.22
2018-01-29T18:46:24.004Z,100028.19
2018-01-29T18:48:50.362Z,100029.98
2018-01-29T18:51:16.704Z,100040.83
2018-01-29T18:53:43.030Z,100048.64
2018-01-29T18:56:09.552Z,100033.77
2018-01-29T18:58:35.958Z,100029.15
2018-01-29T19:01:02.364Z,100035.59
2018-01-29T19:03:28.690Z,100032.51
2018-01-29T19:05:54.995Z,100029.05
2018-01-29T19:08:22.069Z,100020.80
2018-01-29T19:10:48.473Z,100014.03
2018-01-29T19:13:14.803Z,100025.08
2018-01-29T19:15:41.175Z,100029.10
2018-01-29T19:18:08.343Z,100025.83
2018-01-29T19:20:34.647Z,100003.91
2018-01-29T19:23:01.760Z,100018.77
2018-01-29T19:25:28.034Z,100007.63
2018-01-29T19:27:55.153Z,100004.94
2018-01-29T19:30:21.540Z,100004.62
2018-01-29T19:32:47.958Z,100012.30
2018-01-29T19:35:15.138Z,100003.70
2018-01-29T19:37:42.338Z,99997.70
2018-01-29T19:40:08.869Z,99997.48
2018-01-29T19:42:35.242Z,99997.39
2018-01-29T19:45:01.569Z,99998.86
2018-01-29T19:47:28.446Z,100002.66
2018-01-29T19:49:54.779Z,99999.44
2018-01-29T19:52:21.075Z,99995.80
2018-01-29T19:54:47.463Z,99982.39
2018-01-29T19:57:13.799Z,99965.94
2018-01-29T19:59:40.677Z,99975.27
2018-01-29T20:02:07.035Z,99977.75
2018-01-29T20:04:33.415Z,99976.95
2018-01-29T20:07:00.020Z,99975.70
2018-01-29T20:09:26.361Z,99987.62
2018-01-29T20:11:52.738Z,99975.44
2018-01-29T20:14:19.173Z,99978.97
2018-01-29T20:16:45.582Z,99977.59
2018-01-29T20:19:11.949Z,99960.31
2018-01-29T20:21:38.324Z,99973.43
2018-01-29T20:24:04.716Z,99968.40
2018-01-29T20:26:31.862Z,99976.63
2018-01-29T20:28:58.254Z,99976.52
2018-01-29T20:31:25.263Z,99944.91
2018-01-29T20:33:51.670Z,99961.33
2018-01-29T20:36:18.049Z,99957.38
2018-01-29T20:38:44.363Z,99966.44
2018-01-29T20:41:10.877Z,99949.88
2018-01-29T20:43:37.330Z,99948.44
2018-01-29T20:46:03.775Z,99945.45
2018-01-29T20:48:30.097Z,99971.08
2018-01-29T20:50:57.013Z,99967.92
2018-01-29T20:53:23.343Z,99959.66
2018-01-29T20:55:50.417Z,99963.79
2018-01-29T20:58:16.824Z,99962.06
2018-01-29T21:00:43.117Z,99971.36
2018-01-29T21:03:09.418Z,99980.95
2018-01-29T21:05:35.661Z,99990.04
2018-01-29T21:08:01.931Z,99962.81
2018-01-29T21:10:28.943Z,99982.70
2018-01-29T21:12:55.220Z,99970.84
2018-01-29T21:15:22.220Z,99975.90
2018-01-29T21:17:48.640Z,99972.28
2018-01-29T21:20:14.996Z,99956.88
2018-01-29T21:22:41.336Z,99980.55
2018-01-29T21:25:07.736Z,99978.96
2018-01-29T21:27:34.093Z,99982.20
2018-01-29T21:30:00.462Z,99976.52
2018-01-29T21:32:27.477Z,99973.92
2018-01-29T21:34:53.871Z,99975.06
2018-01-29T21:37:20.160Z,99977.01
2018-01-29T21:39:47.203Z,99995.13
2018-01-29T21:42:13.553Z,99995.51
2018-01-29T21:44:39.915Z,100009.43
2018-01-29T21:47:06.229Z,99982.75
2018-01-29T21:49:32.572Z,100010.11
2018-01-29T21:51:58.848Z,99997.45
2018-01-29T21:54:25.223Z,99981.78
2018-01-29T21:56:51.485Z,99976.91
2018-01-29T21:59:17.771Z,99975.61
2018-01-29T22:01:44.120Z,99980.83
2018-01-29T22:04:10.402Z,99987.38
2018-01-29T22:06:36.729Z,99943.42
2018-01-29T22:09:03.012Z,99988.14
2018-01-29T22:11:29.297Z,99980.14
2018-01-29T22:13:55.579Z,99950.20
2018-01-29T22:16:21.838Z,100005.31
2018-01-29T22:18:48.136Z,99990.58
2018-01-29T22:21:14.520Z,99984.78
2018-01-29T22:23:40.800Z,99990.28
2018-01-29T22:26:07.096Z,100004.97
2018-01-29T22:28:34.132Z,99998.95
2018-01-29T22:31:00.412Z,99990.39
2018-01-29T22:33:26.676Z,100004.80
2018-01-29T22:35:53.014Z,99997.41
2018-01-29T22:38:19.314Z,100001.91
2018-01-29T22:40:45.623Z,100029.17
2018-01-29T22:43:11.925Z,100022.38
2018-01-29T22:45:38.954Z,100025.31
2018-01-29T22:48:05.217Z,100034.06
2018-01-29T22:50:31.551Z,100049.03
2018-01-29T22:52:57.855Z,100069.58
2018-01-29T22:55:24.185Z,100117.45
2018-01-29T22:57:50.499Z,100134.75
2018-01-29T23:00:16.914Z,100126.97
2018-01-29T23:02:43.297Z,100150.28
2018-01-29T23:05:10.295Z,100163.98
2018-01-29T23:07:36.630Z,100159.37
2018-01-29T23:10:03.020Z,100197.11
2018-01-29T23:12:29.351Z,100179.14
2018-01-29T23:14:55.651Z,100179.67
2018-01-29T23:17:21.918Z,100171.80
2018-01-29T23:19:48.220Z,100179.20
2018-01-29T23:22:14.524Z,100199.98
2018-01-29T23:24:40.834Z,100210.89
2018-01-29T23:27:07.068Z,100217.25
2018-01-29T23:29:33.388Z,100222.73
2018-01-29T23:31:59.624Z,100230.83
2018-01-29T23:34:25.919Z,100227.23
2018-01-29T23:36:52.166Z,100232.06
2018-01-29T23:39:18.436Z,100258.77
2018-01-29T23:41:44.684Z,100263.89
2018-01-29T23:44:11.000Z,100251.98
2018-01-29T23:46:37.256Z,100253.85
2018-01-29T23:49:04.281Z,100271.61
2018-01-29T23:51:30.562Z,100318.18
2018-01-29T23:53:56.806Z,100299.86
2018-01-29T23:56:23.088Z,100283.86
2018-01-29T23:58:50.117Z,100300.47
